createdAt,value
2018-10-16T00:01:08.069Z,90.40
2018-10-16T00:03:36.279Z,90.60
2018-10-16T00:06:05.022Z,90.90
2018-10-16T00:08:33.318Z,91.00
2018-10-16T00:11:01.529Z,90.50
2018-10-16T00:13:29.741Z,90.10
2018-10-16T00:15:57.954Z,89.80
2018-10-16T00:18:26.169Z,89.00
2018-10-16T00:20:54.405Z,89.00
2018-10-16T00:23:22.610Z,89.10
2018-10-16T00:25:50.826Z,88.70
2018-10-16T00:28:19.028Z,88.70
2018-10-16T00:30:47.206Z,88.50
2018-10-16T00:33:15.531Z,88.80
2018-10-16T00:35:43.725Z,88.50
2018-10-16T00:38:12.009Z,88.30
2018-10-16T00:40:40.208Z,87.60
2018-10-16T00:43:08.393Z,87.30
2018-10-16T00:45:36.604Z,87.50
2018-10-16T00:48:05.148Z,87.80
2018-10-16T00:50:33.369Z,88.30
2018-10-16T00:53:01.598Z,88.30
2018-10-16T00:55:29.777Z,88.00
2018-10-16T00:57:57.993Z,87.50
2018-10-16T01:00:26.225Z,87.90
2018-10-16T01:02:57.406Z,88.00
2018-10-16T01:05:26.598Z,88.00
2018-10-16T01:07:54.810Z,88.10
2018-10-16T01:10:23.018Z,88.00
2018-10-16T01:12:51.254Z,88.30
2018-10-16T01:15:19.478Z,88.70
2018-10-16T01:17:47.697Z,88.90
2018-10-16T01:20:16.109Z,88.60
2018-10-16T01:22:44.325Z,88.80
2018-10-16T01:25:13.129Z,89.00
2018-10-16T01:27:41.331Z,88.90
2018-10-16T01:30:09.890Z,88.80
2018-10-16T01:32:38.413Z,88.10
2018-10-16T01:35:08.156Z,88.40
2018-10-16T01:37:36.440Z,88.60
2018-10-16T01:40:06.413Z,88.40
2018-10-16T01:42:34.633Z,88.60
2018-10-16T01:45:02.872Z,88.00
2018-10-16T01:47:31.109Z,88.00
2018-10-16T01:49:59.293Z,88.30
2018-10-16T01:52:27.517Z,88.60
2018-10-16T01:54:55.721Z,88.20
2018-10-16T01:57:24.256Z,89.10
2018-10-16T01:59:52.578Z,89.20
2018-10-16T02:02:20.811Z,88.80
2018-10-16T02:04:49.026Z,89.10
2018-10-16T02:07:17.248Z,89.20
2018-10-16T02:09:45.442Z,89.40
2018-10-16T02:12:13.770Z,89.00
2018-10-16T02:14:42.050Z,89.40
2018-10-16T02:17:10.287Z,89.60
2018-10-16T02:19:38.469Z,89.20
2018-10-16T02:22:06.673Z,89.30
2018-10-16T02:24:34.881Z,89.10
2018-10-16T02:27:03.089Z,88.70
2018-10-16T02:29:31.341Z,89.10
2018-10-16T02:31:59.529Z,89.40
2018-10-16T02:34:27.758Z,89.30
2018-10-16T02:36:56.006Z,89.10
2018-10-16T02:39:24.188Z,89.40
2018-10-16T02:41:52.389Z,89.20
2018-10-16T02:44:20.561Z,89.40
2018-10-16T02:46:48.779Z,89.30
2018-10-16T02:49:17.020Z,89.00
2018-10-16T02:51:45.199Z,89.50
2018-10-16T02:54:13.428Z,89.30
2018-10-16T02:56:41.612Z,89.00
2018-10-16T02:59:09.847Z,88.90
2018-10-16T03:01:38.060Z,89.20
2018-10-16T03:04:06.285Z,89.20
2018-10-16T03:06:34.474Z,88.90
2018-10-16T03:09:03.481Z,88.70
2018-10-16T03:11:31.657Z,89.10
2018-10-16T03:13:59.866Z,88.90
2018-10-16T03:16:28.165Z,89.40
2018-10-16T03:18:56.389Z,89.50
2018-10-16T03:21:24.617Z,89.30
2018-10-16T03:23:52.802Z,88.40
2018-10-16T03:26:20.999Z,88.50
2018-10-16T03:28:49.204Z,88.90
2018-10-16T03:31:17.423Z,88.90
2018-10-16T03:33:45.657Z,88.90
2018-10-16T03:36:13.839Z,89.10
2018-10-16T03:38:42.061Z,88.50
2018-10-16T03:41:10.257Z,88.70
2018-10-16T03:43:39.348Z,89.10
2018-10-16T03:46:07.611Z,88.60
2018-10-16T03:48:36.010Z,88.90
2018-10-16T03:51:04.549Z,88.60
2018-10-16T03:53:32.741Z,88.70
2018-10-16T03:56:00.957Z,89.10
2018-10-16T03:58:29.217Z,89.30
2018-10-16T04:00:57.392Z,89.00
2018-10-16T04:03:25.614Z,89.10
2018-10-16T04:05:53.808Z,89.00
2018-10-16T04:08:22.029Z,89.20
2018-10-16T04:10:50.235Z,89.00
2018-10-16T04:13:18.429Z,89.40
2018-10-16T04:15:46.660Z,88.90
2018-10-16T04:18:14.886Z,88.90
2018-10-16T04:20:43.206Z,89.00
2018-10-16T04:23:11.430Z,88.70
2018-10-16T04:25:39.597Z,88.70
2018-10-16T04:28:07.811Z,88.60
2018-10-16T04:30:35.990Z,88.30
2018-10-16T04:33:04.230Z,88.60
2018-10-16T04:35:33.010Z,88.80
2018-10-16T04:38:01.285Z,89.00
2018-10-16T04:40:29.461Z,88.70
2018-10-16T04:42:57.698Z,88.00
2018-10-16T04:45:25.913Z,88.30
2018-10-16T04:47:54.128Z,88.30
2018-10-16T04:50:22.337Z,88.30
2018-10-16T04:52:50.570Z,88.40
2018-10-16T04:55:18.876Z,88.40
2018-10-16T04:57:47.030Z,88.10
2018-10-16T05:00:15.265Z,88.50
2018-10-16T05:02:43.630Z,88.60
2018-10-16T05:05:20.355Z,88.40
2018-10-16T05:07:49.130Z,88.70
2018-10-16T05:10:17.440Z,88.70
2018-10-16T05:12:45.654Z,88.30
2018-10-16T05:15:22.725Z,89.00
2018-10-16T05:17:50.948Z,88.90
2018-10-16T05:20:19.172Z,88.40
2018-10-16T05:22:47.661Z,88.90
2018-10-16T05:25:15.835Z,89.00
2018-10-16T05:27:44.409Z,89.20
2018-10-16T05:30:12.631Z,89.10
2018-10-16T05:32:40.905Z,89.00
2018-10-16T05:35:09.608Z,89.10
2018-10-16T05:37:38.504Z,89.10
2018-10-16T05:40:07.430Z,89.50
2018-10-16T05:42:35.642Z,89.10
2018-10-16T05:45:03.990Z,89.40
2018-10-16T05:47:32.239Z,89.70
2018-10-16T05:50:00.461Z,89.90
2018-10-16T05:52:28.702Z,90.00
2018-10-16T05:54:56.994Z,90.40
2018-10-16T05:57:25.229Z,90.70
2018-10-16T06:00:00.556Z,90.30
2018-10-16T06:02:28.794Z,90.50
2018-10-16T06:04:57.032Z,90.50
2018-10-16T06:07:25.247Z,90.10
2018-10-16T06:09:53.511Z,90.40
2018-10-16T06:12:21.783Z,90.50
2018-10-16T06:14:50.011Z,90.50
2018-10-16T06:17:18.268Z,90.00
2018-10-16T06:19:46.511Z,90.10
2018-10-16T06:22:14.761Z,89.80
2018-10-16T06:24:42.984Z,89.70
2018-10-16T06:27:11.229Z,89.50
2018-10-16T06:29:39.481Z,88.90
2018-10-16T06:32:07.694Z,88.70
2018-10-16T06:34:35.942Z,88.70
2018-10-16T06:37:04.219Z,88.50
2018-10-16T06:39:32.461Z,87.90
2018-10-16T06:42:00.707Z,87.90
2018-10-16T06:44:28.933Z,87.50
2018-10-16T06:46:57.209Z,87.10
2018-10-16T06:49:25.434Z,86.80
2018-10-16T06:51:53.681Z,86.80
2018-10-16T06:54:21.955Z,86.80
2018-10-16T06:56:50.166Z,86.40
2018-10-16T06:59:18.397Z,85.90
2018-10-16T07:01:46.629Z,85.60
2018-10-16T07:04:14.877Z,85.00
2018-10-16T07:06:43.144Z,84.40
2018-10-16T07:09:11.369Z,84.20
2018-10-16T07:11:39.712Z,83.50
2018-10-16T07:14:10.059Z,83.10
2018-10-16T07:16:38.431Z,83.10
2018-10-16T07:19:07.313Z,82.60
2018-10-16T07:21:35.588Z,82.50
2018-10-16T07:24:04.266Z,82.30
2018-10-16T07:26:32.472Z,82.20
2018-10-16T07:29:00.751Z,82.40
2018-10-16T07:31:29.093Z,82.40
2018-10-16T07:33:57.593Z,81.90
2018-10-16T07:36:25.836Z,81.40
2018-10-16T07:38:54.136Z,80.90
2018-10-16T07:41:22.351Z,80.50
2018-10-16T07:43:50.541Z,81.00
2018-10-16T07:46:18.814Z,81.00
2018-10-16T07:48:47.009Z,80.60
2018-10-16T07:51:15.236Z,80.60
2018-10-16T07:53:43.489Z,81.20
2018-10-16T07:56:11.699Z,80.30
2018-10-16T07:58:39.946Z,80.90
2018-10-16T08:01:08.153Z,81.00
2018-10-16T08:03:36.397Z,80.70
2018-10-16T08:06:05.038Z,80.20
2018-10-16T08:08:33.277Z,79.30
2018-10-16T08:11:01.506Z,79.00
2018-10-16T08:13:29.856Z,79.20
2018-10-16T08:15:58.090Z,77.60
2018-10-16T08:18:26.267Z,77.50
2018-10-16T08:20:54.528Z,76.80
2018-10-16T08:23:22.738Z,76.50
2018-10-16T08:25:50.965Z,74.60
2018-10-16T08:28:19.254Z,75.60
2018-10-16T08:30:47.472Z,76.70
2018-10-16T08:33:18.474Z,76.30
2018-10-16T08:35:46.707Z,76.40
2018-10-16T08:38:52.268Z,76.40
2018-10-16T08:41:23.887Z,76.20
2018-10-16T08:44:03.082Z,75.20
2018-10-16T08:46:42.213Z,74.60
2018-10-16T08:49:21.548Z,74.50
2018-10-16T08:51:51.631Z,74.00
2018-10-16T08:54:20.121Z,73.80
2018-10-16T08:56:48.340Z,74.70
2018-10-16T08:59:16.534Z,74.40
2018-10-16T09:01:44.780Z,75.50
2018-10-16T09:04:13.070Z,75.00
2018-10-16T09:06:41.379Z,74.70
2018-10-16T09:09:11.277Z,74.50
2018-10-16T09:11:41.418Z,73.60
2018-10-16T09:14:09.772Z,73.10
2018-10-16T09:16:37.897Z,73.30
2018-10-16T09:19:06.303Z,73.00
2018-10-16T09:21:34.609Z,73.30
2018-10-16T09:24:02.846Z,73.00
2018-10-16T09:26:31.127Z,72.80
2018-10-16T09:28:59.630Z,72.60
2018-10-16T09:31:27.881Z,73.20
2018-10-16T09:33:56.078Z,72.90
2018-10-16T09:36:24.297Z,72.00
2018-10-16T09:38:52.609Z,72.10
2018-10-16T09:41:20.797Z,73.20
2018-10-16T09:43:49.030Z,72.80
2018-10-16T09:46:17.270Z,71.90
2018-10-16T09:48:45.494Z,71.50
2018-10-16T09:51:13.730Z,71.50
2018-10-16T09:53:41.925Z,71.70
2018-10-16T09:56:10.206Z,71.30
2018-10-16T09:58:38.513Z,70.90
2018-10-16T10:01:12.282Z,71.30
2018-10-16T10:03:40.663Z,71.50
2018-10-16T10:06:08.869Z,70.70
2018-10-16T10:08:37.104Z,71.50
2018-10-16T10:11:05.607Z,70.80
2018-10-16T10:13:33.824Z,69.50
2018-10-16T10:16:02.090Z,70.60
2018-10-16T10:18:30.306Z,70.90
2018-10-16T10:20:58.593Z,71.60
2018-10-16T10:23:26.860Z,69.60
2018-10-16T10:25:55.068Z,70.60
2018-10-16T10:28:23.269Z,70.10
2018-10-16T10:30:51.544Z,69.90
2018-10-16T10:33:19.753Z,68.90
2018-10-16T10:35:47.949Z,69.20
2018-10-16T10:38:16.191Z,68.40
2018-10-16T10:40:44.396Z,67.90
2018-10-16T10:43:12.625Z,68.10
2018-10-16T10:45:40.838Z,67.40
2018-10-16T10:48:09.065Z,67.50
2018-10-16T10:50:37.492Z,67.30
2018-10-16T10:53:05.550Z,66.80
2018-10-16T10:55:33.801Z,66.10
2018-10-16T10:58:02.250Z,65.40
2018-10-16T11:00:30.497Z,65.90
2018-10-16T11:02:58.854Z,65.80
2018-10-16T11:05:27.041Z,64.70
2018-10-16T11:07:55.255Z,64.20
2018-10-16T11:10:23.490Z,64.50
2018-10-16T11:12:51.685Z,65.40
2018-10-16T11:15:19.926Z,64.50
2018-10-16T11:17:48.116Z,65.50
2018-10-16T11:20:16.409Z,65.00
2018-10-16T11:22:44.708Z,66.90
2018-10-16T11:25:13.015Z,67.20
2018-10-16T11:27:41.275Z,66.40
2018-10-16T11:30:14.598Z,65.70
2018-10-16T11:32:43.026Z,66.50
2018-10-16T11:35:12.584Z,65.40
2018-10-16T11:37:40.808Z,65.10
2018-10-16T11:40:09.456Z,64.50
2018-10-16T11:42:37.708Z,64.60
2018-10-16T11:45:06.824Z,65.70
2018-10-16T11:47:35.433Z,63.30
2018-10-16T11:50:03.935Z,64.20
2018-10-16T11:52:32.218Z,64.90
2018-10-16T11:55:00.475Z,64.90
2018-10-16T11:57:29.305Z,66.20
2018-10-16T11:59:57.561Z,66.50
2018-10-16T12:02:25.828Z,65.60
2018-10-16T12:04:54.061Z,65.30
2018-10-16T12:07:22.292Z,67.90
2018-10-16T12:09:50.486Z,67.10
2018-10-16T12:12:18.709Z,68.60
2018-10-16T12:14:46.897Z,68.60
2018-10-16T12:17:22.290Z,67.60
2018-10-16T12:19:58.213Z,67.20
2018-10-16T12:22:26.365Z,66.80
2018-10-16T12:24:54.566Z,66.70
2018-10-16T12:27:22.837Z,67.30
2018-10-16T12:29:51.041Z,67.90
2018-10-16T12:32:19.260Z,66.90
2018-10-16T12:34:47.481Z,65.10
2018-10-16T12:37:15.679Z,65.40
2018-10-16T12:39:43.985Z,64.90
2018-10-16T12:42:12.363Z,66.00
2018-10-16T12:44:40.529Z,64.60
2018-10-16T12:47:08.828Z,64.90
2018-10-16T12:49:37.045Z,65.30
2018-10-16T12:52:05.282Z,64.20
2018-10-16T12:54:33.520Z,64.10
2018-10-16T12:57:01.782Z,62.90
2018-10-16T12:59:29.985Z,63.00
2018-10-16T13:01:58.214Z,62.90
2018-10-16T13:04:26.474Z,61.70
2018-10-16T13:06:54.713Z,62.40
2018-10-16T13:09:22.946Z,63.30
2018-10-16T13:11:51.154Z,63.70
2018-10-16T13:14:19.394Z,63.60
2018-10-16T13:16:47.596Z,62.50
2018-10-16T13:19:15.838Z,62.30
2018-10-16T13:21:44.095Z,61.50
2018-10-16T13:24:12.286Z,62.00
2018-10-16T13:26:40.539Z,60.70
2018-10-16T13:29:08.791Z,61.20
2018-10-16T13:31:37.021Z,60.70
2018-10-16T13:34:05.763Z,60.10
2018-10-16T13:36:33.985Z,59.40
2018-10-16T13:39:02.256Z,59.20
2018-10-16T13:41:30.450Z,59.40
2018-10-16T13:43:58.701Z,56.60
2018-10-16T13:46:26.975Z,56.20
2018-10-16T13:48:55.174Z,57.20
2018-10-16T13:51:23.407Z,57.80
2018-10-16T13:53:51.610Z,57.60
2018-10-16T13:56:19.857Z,58.80
2018-10-16T13:58:48.125Z,59.00
2018-10-16T14:01:16.361Z,59.00
2018-10-16T14:03:44.592Z,57.90
2018-10-16T14:06:12.792Z,57.40
2018-10-16T14:08:41.006Z,60.00
2018-10-16T14:11:09.229Z,58.60
2018-10-16T14:13:37.429Z,58.30
2018-10-16T14:16:05.726Z,57.50
2018-10-16T14:18:33.913Z,58.40
2018-10-16T14:21:02.167Z,58.90
2018-10-16T14:23:30.389Z,58.80
2018-10-16T14:25:58.607Z,57.90
2018-10-16T14:28:26.850Z,57.40
2018-10-16T14:30:55.067Z,57.80
2018-10-16T14:33:23.298Z,58.40
2018-10-16T14:35:51.498Z,57.80
2018-10-16T14:38:19.728Z,59.60
2018-10-16T14:40:47.970Z,60.30
2018-10-16T14:43:16.150Z,60.50
2018-10-16T14:45:44.402Z,60.40
2018-10-16T14:48:12.748Z,60.60
2018-10-16T14:50:40.901Z,61.70
2018-10-16T14:53:09.125Z,61.80
2018-10-16T14:55:37.318Z,61.30
2018-10-16T14:58:05.596Z,61.80
2018-10-16T15:00:33.794Z,61.50
2018-10-16T15:03:02.033Z,62.20
2018-10-16T15:05:30.278Z,62.70
2018-10-16T15:07:58.568Z,63.00
2018-10-16T15:10:26.839Z,63.40
2018-10-16T15:12:54.984Z,63.90
2018-10-16T15:15:23.198Z,64.20
2018-10-16T15:17:51.376Z,64.60
2018-10-16T15:20:19.620Z,64.60
2018-10-16T15:22:47.841Z,65.00
2018-10-16T15:25:16.077Z,65.30
2018-10-16T15:27:44.354Z,66.80
2018-10-16T15:30:12.566Z,67.50
2018-10-16T15:32:40.786Z,67.90
2018-10-16T15:35:10.221Z,68.60
2018-10-16T15:37:38.734Z,69.10
2018-10-16T15:40:08.547Z,70.20
2018-10-16T15:42:36.746Z,70.20
2018-10-16T15:45:06.517Z,70.60
2018-10-16T15:47:34.729Z,70.40
2018-10-16T15:50:03.170Z,70.60
2018-10-16T15:52:31.357Z,70.90
2018-10-16T15:54:59.562Z,70.90
2018-10-16T15:57:27.787Z,70.50
2018-10-16T15:59:56.055Z,71.30
2018-10-16T16:02:24.337Z,71.90
2018-10-16T16:04:52.553Z,72.00
2018-10-16T16:07:20.722Z,72.50
2018-10-16T16:09:48.942Z,72.90
2018-10-16T16:12:17.116Z,72.70
2018-10-16T16:14:45.318Z,72.50
2018-10-16T16:17:13.553Z,73.10
2018-10-16T16:19:41.767Z,73.60
2018-10-16T16:22:10.062Z,74.50
2018-10-16T16:24:38.241Z,74.80
2018-10-16T16:27:06.553Z,75.00
2018-10-16T16:29:34.821Z,75.40
2018-10-16T16:32:03.064Z,76.00
2018-10-16T16:34:31.459Z,76.60
2018-10-16T16:36:59.946Z,76.80
2018-10-16T16:39:28.259Z,77.70
2018-10-16T16:41:56.441Z,77.40
2018-10-16T16:44:24.714Z,77.20
2018-10-16T16:46:53.570Z,77.40
2018-10-16T16:49:21.814Z,77.80
2018-10-16T16:51:50.034Z,78.20
2018-10-16T16:54:18.285Z,78.10
2018-10-16T16:56:46.524Z,78.30
2018-10-16T16:59:14.730Z,77.90
2018-10-16T17:01:42.917Z,78.10
2018-10-16T17:04:11.251Z,77.90
2018-10-16T17:06:39.438Z,78.30
2018-10-16T17:09:10.253Z,78.50
2018-10-16T17:11:38.522Z,79.10
2018-10-16T17:14:06.972Z,78.50
2018-10-16T17:16:35.465Z,78.30
2018-10-16T17:19:04.192Z,78.40
2018-10-16T17:21:32.378Z,78.60
2018-10-16T17:24:00.606Z,78.40
2018-10-16T17:26:28.919Z,78.20
2018-10-16T17:28:57.170Z,78.50
2018-10-16T17:31:25.414Z,79.20
2018-10-16T17:33:53.658Z,79.00
2018-10-16T17:36:22.051Z,79.60
2018-10-16T17:38:50.299Z,79.60
2018-10-16T17:41:18.541Z,79.90
2018-10-16T17:43:46.818Z,80.10
2018-10-16T17:46:15.058Z,80.40
2018-10-16T17:48:44.015Z,81.00
2018-10-16T17:51:12.265Z,81.00
2018-10-16T17:53:40.477Z,80.90
2018-10-16T17:56:09.194Z,81.00
2018-10-16T17:58:37.661Z,81.70
2018-10-16T18:01:06.666Z,81.90
2018-10-16T18:03:34.861Z,81.90
2018-10-16T18:06:03.259Z,82.20
2018-10-16T18:08:31.471Z,82.50
2018-10-16T18:10:59.676Z,82.80
2018-10-16T18:13:27.957Z,82.80
2018-10-16T18:15:57.039Z,82.90
2018-10-16T18:18:25.271Z,83.10
2018-10-16T18:20:53.887Z,83.00
2018-10-16T18:23:22.084Z,82.70
2018-10-16T18:25:50.297Z,82.90
2018-10-16T18:28:18.465Z,82.90
2018-10-16T18:30:46.733Z,83.00
2018-10-16T18:33:15.016Z,83.60
2018-10-16T18:35:44.078Z,83.50
2018-10-16T18:38:12.295Z,83.40
2018-10-16T18:40:40.474Z,83.50
2018-10-16T18:43:08.715Z,83.80
2018-10-16T18:45:36.914Z,84.10
2018-10-16T18:48:05.180Z,84.40
2018-10-16T18:50:33.379Z,84.80
2018-10-16T18:53:01.603Z,84.30
2018-10-16T18:55:29.837Z,84.20
2018-10-16T18:57:58.017Z,84.20
2018-10-16T19:00:26.278Z,84.50
2018-10-16T19:02:54.518Z,84.70
2018-10-16T19:05:22.757Z,84.70
2018-10-16T19:07:51.380Z,84.80
2018-10-16T19:10:20.351Z,85.00
2018-10-16T19:12:48.597Z,84.90
2018-10-16T19:15:17.611Z,85.00
2018-10-16T19:17:46.394Z,85.00
2018-10-16T19:20:16.599Z,84.90
2018-10-16T19:22:45.549Z,84.80
2018-10-16T19:25:15.677Z,85.00
2018-10-16T19:27:43.918Z,85.30
2018-10-16T19:30:13.165Z,85.20
2018-10-16T19:32:42.366Z,85.50
2018-10-16T19:35:11.880Z,85.60
2018-10-16T19:37:40.497Z,86.40
2018-10-16T19:40:08.793Z,86.00
2018-10-16T19:42:37.018Z,86.00
2018-10-16T19:45:06.098Z,86.10
2018-10-16T19:47:41.037Z,85.80
2018-10-16T19:50:11.410Z,85.70
2018-10-16T19:52:41.300Z,85.70
2018-10-16T19:55:12.580Z,85.30
2018-10-16T19:57:42.146Z,85.00
2018-10-16T20:00:10.572Z,85.20
2018-10-16T20:02:39.020Z,85.70
2018-10-16T20:05:08.110Z,86.00
2018-10-16T20:07:36.422Z,86.00
2018-10-16T20:10:05.887Z,85.80
2018-10-16T20:12:34.577Z,85.90
2018-10-16T20:15:02.763Z,86.00
2018-10-16T20:17:30.969Z,85.90
2018-10-16T20:19:59.181Z,85.60
2018-10-16T20:22:27.382Z,85.90
2018-10-16T20:24:55.672Z,86.50
2018-10-16T20:27:23.809Z,86.60
2018-10-16T20:29:52.866Z,86.80
2018-10-16T20:32:22.236Z,86.70
2018-10-16T20:34:51.255Z,87.70
2018-10-16T20:37:19.885Z,87.80
2018-10-16T20:39:48.618Z,87.90
2018-10-16T20:42:17.354Z,87.90
2018-10-16T20:44:46.033Z,88.10
2018-10-16T20:47:14.789Z,87.70
2018-10-16T20:49:43.413Z,87.10
2018-10-16T20:52:12.095Z,87.20
2018-10-16T20:54:40.791Z,87.30
2018-10-16T20:57:09.397Z,87.20
2018-10-16T20:59:40.646Z,87.20
2018-10-16T21:02:09.337Z,87.10
2018-10-16T21:04:38.110Z,86.80
2018-10-16T21:07:07.000Z,87.10
2018-10-16T21:09:35.560Z,87.60
2018-10-16T21:12:04.301Z,87.70
2018-10-16T21:14:32.939Z,88.00
2018-10-16T21:17:01.669Z,87.80
2018-10-16T21:19:30.479Z,88.40
2018-10-16T21:21:59.181Z,88.90
2018-10-16T21:24:27.862Z,88.30
2018-10-16T21:27:06.240Z,88.30
2018-10-16T21:29:35.335Z,88.40
2018-10-16T21:32:05.592Z,88.20
2018-10-16T21:34:34.402Z,88.10
2018-10-16T21:37:03.172Z,87.80
2018-10-16T21:39:31.879Z,87.70
2018-10-16T21:42:00.536Z,87.40
2018-10-16T21:44:29.252Z,87.10
2018-10-16T21:46:57.511Z,87.10
2018-10-16T21:49:25.692Z,87.60
2018-10-16T21:51:53.896Z,87.80
2018-10-16T21:54:22.069Z,87.50
2018-10-16T21:56:50.293Z,88.00
2018-10-16T21:59:18.999Z,87.70
2018-10-16T22:01:52.889Z,88.30
2018-10-16T22:04:21.086Z,88.30
2018-10-16T22:06:49.254Z,88.80
2018-10-16T22:09:17.482Z,88.80
2018-10-16T22:11:45.661Z,88.80
2018-10-16T22:14:13.858Z,89.10
2018-10-16T22:16:42.021Z,89.20
2018-10-16T22:19:10.321Z,89.30
2018-10-16T22:21:38.589Z,89.30
2018-10-16T22:24:06.769Z,88.70
2018-10-16T22:26:34.988Z,89.50
2018-10-16T22:29:03.196Z,89.10
2018-10-16T22:31:31.433Z,89.20
2018-10-16T22:33:59.627Z,89.20
2018-10-16T22:36:27.804Z,89.30
2018-10-16T22:38:56.025Z,89.40
2018-10-16T22:41:24.206Z,89.00
2018-10-16T22:43:52.451Z,88.60
2018-10-16T22:46:20.644Z,89.20
2018-10-16T22:48:48.826Z,89.10
2018-10-16T22:51:17.021Z,88.70
2018-10-16T22:53:45.237Z,88.50
2018-10-16T22:56:13.472Z,88.80
2018-10-16T22:58:41.665Z,88.90
2018-10-16T23:01:09.839Z,89.00
2018-10-16T23:03:38.050Z,88.80
2018-10-16T23:06:06.613Z,88.80
2018-10-16T23:08:34.832Z,89.30
2018-10-16T23:11:03.101Z,89.30
2018-10-16T23:13:31.273Z,89.30
2018-10-16T23:15:59.468Z,89.50
2018-10-16T23:18:27.637Z,89.30
2018-10-16T23:20:58.746Z,88.90
2018-10-16T23:23:26.910Z,89.10
2018-10-16T23:26:01.953Z,89.20
2018-10-16T23:28:30.158Z,89.50
2018-10-16T23:30:58.349Z,89.80
2018-10-16T23:33:26.573Z,90.40
2018-10-16T23:35:54.748Z,90.00
2018-10-16T23:38:22.977Z,90.20
2018-10-16T23:40:51.196Z,90.40
2018-10-16T23:43:19.543Z,90.30
2018-10-16T23:45:47.647Z,90.40
2018-10-16T23:48:15.861Z,90.50
2018-10-16T23:50:44.017Z,90.30
2018-10-16T23:53:12.280Z,90.10
2018-10-16T23:55:40.441Z,90.40
2018-10-16T23:58:08.649Z,90.00
